sensor_id;sensor_type;location;lat;lon;timestamp;pressure;altitude;pressure_sealevel;temperature;humidity
76547;BME280;65390;53.014;8.886;2022-12-20T00:01:26;101335.53;;;7.14;100.00
76547;BME280;65390;53.014;8.886;2022-12-20T00:03:54;101345.38;;;7.12;100.00
76547;BME280;65390;53.014;8.886;2022-12-20T00:06:22;101372.31;;;7.26;100.00
76547;BME280;65390;53.014;8.886;2022-12-20T00:08:55;101334.00;;;7.08;100.00
76547;BME280;65390;53.014;8.886;2022-12-20T00:11:42;101349.25;;;7.25;100.00
76547;BME280;65390;53.014;8.886;2022-12-20T00:14:09;101348.84;;;7.34;100.00
76547;BME280;65390;53.014;8.886;2022-12-20T00:16:36;101354.31;;;7.31;100.00
76547;BME280;65390;53.014;8.886;2022-12-20T00:19:04;101311.47;;;7.15;100.00
76547;BME280;65390;53.014;8.886;2022-12-20T00:21:32;101327.28;;;7.40;100.00
76547;BME280;65390;53.014;8.886;2022-12-20T00:24:00;101322.88;;;7.39;100.00
76547;BME280;65390;53.014;8.886;2022-12-20T00:26:29;101314.88;;;7.39;100.00
76547;BME280;65390;53.014;8.886;2022-12-20T00:28:58;101307.81;;;7.38;100.00
76547;BME280;65390;53.014;8.886;2022-12-20T00:31:28;101304.06;;;7.42;100.00
76547;BME280;65390;53.014;8.886;2022-12-20T00:33:56;101321.09;;;7.58;100.00
76547;BME280;65390;53.014;8.886;2022-12-20T00:36:25;101332.97;;;7.51;100.00
76547;BME280;65390;53.014;8.886;2022-12-20T00:38:52;101328.31;;;7.56;100.00
76547;BME280;65390;53.014;8.886;2022-12-20T00:41:29;101308.59;;;7.40;100.00
76547;BME280;65390;53.014;8.886;2022-12-20T00:43:56;101300.53;;;7.42;100.00
76547;BME280;65390;53.014;8.886;2022-12-20T00:46:23;101299.75;;;7.40;100.00
76547;BME280;65390;53.014;8.886;2022-12-20T00:48:51;101331.63;;;7.62;100.00
76547;BME280;65390;53.014;8.886;2022-12-20T00:51:21;101330.56;;;7.66;100.00
76547;BME280;65390;53.014;8.886;2022-12-20T00:53:49;101294.03;;;7.47;100.00
76547;BME280;65390;53.014;8.886;2022-12-20T00:56:16;101319.88;;;7.66;100.00
76547;BME280;65390;53.014;8.886;2022-12-20T00:58:43;101287.63;;;7.51;100.00
76547;BME280;65390;53.014;8.886;2022-12-20T01:01:21;101285.66;;;7.56;100.00
76547;BME280;65390;53.014;8.886;2022-12-20T01:03:49;101296.66;;;7.68;100.00
76547;BME280;65390;53.014;8.886;2022-12-20T01:06:18;101306.31;;;7.70;100.00
76547;BME280;65390;53.014;8.886;2022-12-20T01:08:45;101299.41;;;7.66;100.00
76547;BME280;65390;53.014;8.886;2022-12-20T01:11:28;101319.69;;;7.89;100.00
76547;BME280;65390;53.014;8.886;2022-12-20T01:13:57;101306.56;;;7.84;100.00
76547;BME280;65390;53.014;8.886;2022-12-20T01:16:36;101299.78;;;7.77;100.00
76547;BME280;65390;53.014;8.886;2022-12-20T01:19:05;101298.47;;;7.86;100.00
76547;BME280;65390;53.014;8.886;2022-12-20T01:21:32;101292.22;;;7.87;100.00
76547;BME280;65390;53.014;8.886;2022-12-20T01:23:59;101283.00;;;7.94;100.00
76547;BME280;65390;53.014;8.886;2022-12-20T01:26:29;101304.75;;;8.04;100.00
76547;BME280;65390;53.014;8.886;2022-12-20T01:28:58;101286.53;;;7.95;100.00
76547;BME280;65390;53.014;8.886;2022-12-20T01:31:27;101284.88;;;7.92;100.00
76547;BME280;65390;53.014;8.886;2022-12-20T01:33:54;101283.72;;;7.98;100.00
76547;BME280;65390;53.014;8.886;2022-12-20T01:36:23;101318.63;;;8.12;100.00
76547;BME280;65390;53.014;8.886;2022-12-20T01:41:30;101313.28;;;7.93;100.00
76547;BME280;65390;53.014;8.886;2022-12-20T01:46:49;101304.03;;;7.81;100.00
76547;BME280;65390;53.014;8.886;2022-12-20T01:49:33;101288.03;;;7.81;100.00
76547;BME280;65390;53.014;8.886;2022-12-20T01:52:14;101306.00;;;7.97;100.00
76547;BME280;65390;53.014;8.886;2022-12-20T01:54:50;101314.06;;;7.95;100.00
76547;BME280;65390;53.014;8.886;2022-12-20T01:57:23;101287.88;;;7.84;100.00
76547;BME280;65390;53.014;8.886;2022-12-20T01:59:51;101283.13;;;7.72;100.00
76547;BME280;65390;53.014;8.886;2022-12-20T02:02:19;101284.78;;;7.75;100.00
76547;BME280;65390;53.014;8.886;2022-12-20T02:04:48;101290.69;;;7.81;100.00
76547;BME280;65390;53.014;8.886;2022-12-20T02:07:22;101304.34;;;7.94;100.00
76547;BME280;65390;53.014;8.886;2022-12-20T02:09:51;101277.59;;;7.77;100.00
76547;BME280;65390;53.014;8.886;2022-12-20T02:12:27;101297.19;;;7.95;100.00
76547;BME280;65390;53.014;8.886;2022-12-20T02:21:45;101251.03;;;7.93;100.00
76547;BME280;65390;53.014;8.886;2022-12-20T02:30:22;101214.50;;;7.76;100.00
76547;BME280;65390;53.014;8.886;2022-12-20T02:32:58;101261.34;;;8.00;100.00
76547;BME280;65390;53.014;8.886;2022-12-20T02:35:31;101250.19;;;7.92;100.00
76547;BME280;65390;53.014;8.886;2022-12-20T02:38:03;101247.13;;;8.00;100.00
76547;BME280;65390;53.014;8.886;2022-12-20T02:40:41;101240.06;;;7.99;100.00
76547;BME280;65390;53.014;8.886;2022-12-20T02:43:10;101230.56;;;7.93;100.00
76547;BME280;65390;53.014;8.886;2022-12-20T02:45:58;101212.03;;;7.90;100.00
76547;BME280;65390;53.014;8.886;2022-12-20T02:48:31;101208.13;;;7.78;100.00
76547;BME280;65390;53.014;8.886;2022-12-20T02:51:01;101238.91;;;8.04;100.00
76547;BME280;65390;53.014;8.886;2022-12-20T02:53:29;101231.34;;;7.95;100.00
76547;BME280;65390;53.014;8.886;2022-12-20T02:58:57;101251.72;;;8.15;100.00
76547;BME280;65390;53.014;8.886;2022-12-20T03:01:32;101250.88;;;8.14;100.00
76547;BME280;65390;53.014;8.886;2022-12-20T03:04:06;101251.03;;;8.11;100.00
76547;BME280;65390;53.014;8.886;2022-12-20T03:06:33;101230.09;;;8.02;100.00
76547;BME280;65390;53.014;8.886;2022-12-20T03:09:00;101226.72;;;7.99;100.00
76547;BME280;65390;53.014;8.886;2022-12-20T03:11:27;101241.56;;;8.04;100.00
76547;BME280;65390;53.014;8.886;2022-12-20T03:13:54;101238.53;;;8.12;100.00
76547;BME280;65390;53.014;8.886;2022-12-20T03:16:21;101206.53;;;7.93;100.00
76547;BME280;65390;53.014;8.886;2022-12-20T03:18:46;101250.41;;;8.24;100.00
76547;BME280;65390;53.014;8.886;2022-12-20T03:21:13;101210.56;;;8.02;100.00
76547;BME280;65390;53.014;8.886;2022-12-20T03:23:42;101232.81;;;8.19;100.00
76547;BME280;65390;53.014;8.886;2022-12-20T03:26:11;101250.13;;;8.30;100.00
76547;BME280;65390;53.014;8.886;2022-12-20T03:28:38;101215.38;;;8.12;100.00
76547;BME280;65390;53.014;8.886;2022-12-20T03:31:05;101211.53;;;8.18;100.00
76547;BME280;65390;53.014;8.886;2022-12-20T03:33:32;101209.03;;;8.15;100.00
76547;BME280;65390;53.014;8.886;2022-12-20T03:35:59;101233.09;;;8.32;100.00
76547;BME280;65390;53.014;8.886;2022-12-20T03:38:26;101205.00;;;8.24;100.00
76547;BME280;65390;53.014;8.886;2022-12-20T03:40:52;101197.41;;;8.16;100.00
76547;BME280;65390;53.014;8.886;2022-12-20T03:43:19;101221.53;;;8.32;100.00
76547;BME280;65390;53.014;8.886;2022-12-20T03:45:46;101226.78;;;8.33;100.00
76547;BME280;65390;53.014;8.886;2022-12-20T03:48:12;101224.22;;;8.32;100.00
76547;BME280;65390;53.014;8.886;2022-12-20T03:50:39;101250.97;;;8.49;100.00
76547;BME280;65390;53.014;8.886;2022-12-20T03:53:06;101193.34;;;8.26;100.00
76547;BME280;65390;53.014;8.886;2022-12-20T03:55:33;101208.69;;;8.40;100.00
76547;BME280;65390;53.014;8.886;2022-12-20T03:58:00;101203.34;;;8.40;100.00
76547;BME280;65390;53.014;8.886;2022-12-20T04:00:30;101236.19;;;8.59;100.00
76547;BME280;65390;53.014;8.886;2022-12-20T04:02:57;101189.41;;;8.33;100.00
76547;BME280;65390;53.014;8.886;2022-12-20T04:05:23;101194.38;;;8.41;100.00
76547;BME280;65390;53.014;8.886;2022-12-20T04:07:50;101223.06;;;8.55;100.00
76547;BME280;65390;53.014;8.886;2022-12-20T04:10:16;101191.22;;;8.33;100.00
76547;BME280;65390;53.014;8.886;2022-12-20T04:12:43;101211.44;;;8.38;100.00
76547;BME280;65390;53.014;8.886;2022-12-20T04:15:10;101214.81;;;8.42;100.00
76547;BME280;65390;53.014;8.886;2022-12-20T04:17:36;101229.34;;;8.54;100.00
76547;BME280;65390;53.014;8.886;2022-12-20T04:20:05;101231.00;;;8.56;100.00
76547;BME280;65390;53.014;8.886;2022-12-20T04:22:45;101231.31;;;8.50;100.00
76547;BME280;65390;53.014;8.886;2022-12-20T04:25:14;101204.94;;;8.44;100.00
76547;BME280;65390;53.014;8.886;2022-12-20T04:27:41;101189.03;;;8.41;100.00
76547;BME280;65390;53.014;8.886;2022-12-20T04:30:08;101231.59;;;8.63;100.00
76547;BME280;65390;53.014;8.886;2022-12-20T04:32:34;101201.91;;;8.33;100.00
76547;BME280;65390;53.014;8.886;2022-12-20T04:35:02;101216.53;;;8.43;100.00
76547;BME280;65390;53.014;8.886;2022-12-20T04:37:30;101205.94;;;8.41;100.00
76547;BME280;65390;53.014;8.886;2022-12-20T04:39:59;101185.97;;;8.31;100.00
76547;BME280;65390;53.014;8.886;2022-12-20T04:42:26;101166.69;;;8.25;100.00
76547;BME280;65390;53.014;8.886;2022-12-20T04:44:53;101208.22;;;8.49;100.00
76547;BME280;65390;53.014;8.886;2022-12-20T04:47:20;101208.69;;;8.57;100.00
76547;BME280;65390;53.014;8.886;2022-12-20T04:49:46;101222.47;;;8.67;100.00
76547;BME280;65390;53.014;8.886;2022-12-20T04:52:13;101209.25;;;8.64;100.00
76547;BME280;65390;53.014;8.886;2022-12-20T04:54:58;101211.13;;;8.79;100.00
76547;BME280;65390;53.014;8.886;2022-12-20T04:57:24;101184.97;;;8.51;100.00
76547;BME280;65390;53.014;8.886;2022-12-20T04:59:51;101183.78;;;8.57;100.00
76547;BME280;65390;53.014;8.886;2022-12-20T05:02:17;101220.72;;;8.66;100.00
76547;BME280;65390;53.014;8.886;2022-12-20T05:04:44;101201.69;;;8.55;100.00
76547;BME280;65390;53.014;8.886;2022-12-20T05:07:10;101191.72;;;8.58;100.00
76547;BME280;65390;53.014;8.886;2022-12-20T05:09:37;101178.44;;;8.39;100.00
76547;BME280;65390;53.014;8.886;2022-12-20T05:12:07;101189.13;;;8.57;100.00
76547;BME280;65390;53.014;8.886;2022-12-20T05:14:39;101168.63;;;8.40;100.00
76547;BME280;65390;53.014;8.886;2022-12-20T05:17:05;101193.00;;;8.51;100.00
76547;BME280;65390;53.014;8.886;2022-12-20T05:19:32;101192.81;;;8.54;100.00
76547;BME280;65390;53.014;8.886;2022-12-20T05:21:58;101208.59;;;8.76;100.00
76547;BME280;65390;53.014;8.886;2022-12-20T05:24:43;101187.56;;;8.53;100.00
76547;BME280;65390;53.014;8.886;2022-12-20T05:27:28;101199.72;;;8.58;100.00
76547;BME280;65390;53.014;8.886;2022-12-20T05:29:55;101154.28;;;8.24;100.00
76547;BME280;65390;53.014;8.886;2022-12-20T05:32:22;101161.81;;;8.34;100.00
76547;BME280;65390;53.014;8.886;2022-12-20T05:34:52;101200.47;;;8.62;100.00
76547;BME280;65390;53.014;8.886;2022-12-20T05:37:21;101191.50;;;8.63;100.00
76547;BME280;65390;53.014;8.886;2022-12-20T05:39:47;101137.44;;;8.40;100.00
76547;BME280;65390;53.014;8.886;2022-12-20T05:42:14;101147.66;;;8.50;100.00
76547;BME280;65390;53.014;8.886;2022-12-20T05:44:44;101191.34;;;8.66;100.00
76547;BME280;65390;53.014;8.886;2022-12-20T05:47:20;101180.50;;;8.69;100.00
76547;BME280;65390;53.014;8.886;2022-12-20T05:49:49;101142.31;;;8.50;100.00
76547;BME280;65390;53.014;8.886;2022-12-20T05:52:16;101160.16;;;8.49;100.00
76547;BME280;65390;53.014;8.886;2022-12-20T05:54:45;101163.06;;;8.62;100.00
76547;BME280;65390;53.014;8.886;2022-12-20T05:57:14;101167.75;;;8.57;100.00
76547;BME280;65390;53.014;8.886;2022-12-20T05:59:41;101171.53;;;8.53;100.00
76547;BME280;65390;53.014;8.886;2022-12-20T06:02:08;101197.94;;;8.59;100.00
76547;BME280;65390;53.014;8.886;2022-12-20T06:04:40;101152.63;;;8.21;100.00
76547;BME280;65390;53.014;8.886;2022-12-20T06:07:10;101188.63;;;8.31;100.00
76547;BME280;65390;53.014;8.886;2022-12-20T06:09:37;101217.03;;;8.51;100.00
76547;BME280;65390;53.014;8.886;2022-12-20T06:12:04;101202.22;;;8.27;100.00
76547;BME280;65390;53.014;8.886;2022-12-20T06:14:30;101193.78;;;8.17;100.00
76547;BME280;65390;53.014;8.886;2022-12-20T06:16:57;101203.66;;;8.34;100.00
76547;BME280;65390;53.014;8.886;2022-12-20T06:19:24;101216.78;;;8.38;100.00
76547;BME280;65390;53.014;8.886;2022-12-20T06:21:54;101221.09;;;8.41;100.00
76547;BME280;65390;53.014;8.886;2022-12-20T06:24:26;101178.41;;;8.22;100.00
76547;BME280;65390;53.014;8.886;2022-12-20T06:26:56;101168.28;;;8.29;100.00
76547;BME280;65390;53.014;8.886;2022-12-20T06:29:23;101176.13;;;8.32;100.00
76547;BME280;65390;53.014;8.886;2022-12-20T06:31:50;101164.69;;;8.30;100.00
76547;BME280;65390;53.014;8.886;2022-12-20T06:34:19;101196.28;;;8.56;100.00
76547;BME280;65390;53.014;8.886;2022-12-20T06:36:45;101147.94;;;8.26;100.00
76547;BME280;65390;53.014;8.886;2022-12-20T06:39:12;101160.31;;;8.46;100.00
76547;BME280;65390;53.014;8.886;2022-12-20T06:41:40;101187.03;;;8.63;100.00
76547;BME280;65390;53.014;8.886;2022-12-20T06:44:07;101168.47;;;8.60;100.00
76547;BME280;65390;53.014;8.886;2022-12-20T06:46:33;101135.50;;;8.44;100.00
76547;BME280;65390;53.014;8.886;2022-12-20T06:49:00;101136.56;;;8.40;100.00
76547;BME280;65390;53.014;8.886;2022-12-20T06:51:29;101135.09;;;8.52;100.00
76547;BME280;65390;53.014;8.886;2022-12-20T06:53:56;101147.50;;;8.53;100.00
76547;BME280;65390;53.014;8.886;2022-12-20T06:56:44;101133.28;;;8.52;100.00
76547;BME280;65390;53.014;8.886;2022-12-20T06:59:13;101182.38;;;8.84;100.00
76547;BME280;65390;53.014;8.886;2022-12-20T07:01:39;101131.00;;;8.62;100.00
76547;BME280;65390;53.014;8.886;2022-12-20T07:04:06;101167.88;;;8.88;100.00
76547;BME280;65390;53.014;8.886;2022-12-20T07:06:33;101160.56;;;8.92;100.00
76547;BME280;65390;53.014;8.886;2022-12-20T07:08:59;101141.59;;;8.81;100.00
76547;BME280;65390;53.014;8.886;2022-12-20T07:11:26;101163.88;;;8.79;100.00
76547;BME280;65390;53.014;8.886;2022-12-20T07:13:58;101139.06;;;8.60;100.00
76547;BME280;65390;53.014;8.886;2022-12-20T07:16:24;101164.38;;;8.70;100.00
76547;BME280;65390;53.014;8.886;2022-12-20T07:18:52;101174.34;;;8.84;100.00
76547;BME280;65390;53.014;8.886;2022-12-20T07:21:22;101132.94;;;8.58;100.00
76547;BME280;65390;53.014;8.886;2022-12-20T07:23:48;101166.63;;;8.78;100.00
76547;BME280;65390;53.014;8.886;2022-12-20T07:26:15;101157.84;;;8.76;100.00
76547;BME280;65390;53.014;8.886;2022-12-20T07:28:42;101188.97;;;8.77;100.00
76547;BME280;65390;53.014;8.886;2022-12-20T07:31:12;101179.59;;;8.86;100.00
76547;BME280;65390;53.014;8.886;2022-12-20T07:33:37;101144.03;;;8.51;100.00
76547;BME280;65390;53.014;8.886;2022-12-20T07:36:09;101143.97;;;8.52;100.00
76547;BME280;65390;53.014;8.886;2022-12-20T07:38:38;101155.66;;;8.67;100.00
76547;BME280;65390;53.014;8.886;2022-12-20T07:41:12;101136.34;;;8.62;100.00
76547;BME280;65390;53.014;8.886;2022-12-20T07:43:40;101142.84;;;8.73;100.00
76547;BME280;65390;53.014;8.886;2022-12-20T07:46:07;101161.50;;;8.91;100.00
76547;BME280;65390;53.014;8.886;2022-12-20T07:48:33;101157.28;;;8.87;100.00
76547;BME280;65390;53.014;8.886;2022-12-20T07:51:10;101160.72;;;8.89;100.00
76547;BME280;65390;53.014;8.886;2022-12-20T07:53:43;101155.94;;;8.78;100.00
76547;BME280;65390;53.014;8.886;2022-12-20T07:56:12;101187.50;;;9.04;100.00
76547;BME280;65390;53.014;8.886;2022-12-20T07:58:40;101156.09;;;8.92;100.00
76547;BME280;65390;53.014;8.886;2022-12-20T08:01:09;101160.94;;;9.01;100.00
76547;BME280;65390;53.014;8.886;2022-12-20T08:03:43;101114.69;;;8.84;100.00
76547;BME280;65390;53.014;8.886;2022-12-20T08:06:12;101134.09;;;8.87;100.00
76547;BME280;65390;53.014;8.886;2022-12-20T08:08:43;101118.66;;;8.92;100.00
76547;BME280;65390;53.014;8.886;2022-12-20T08:11:11;101130.50;;;9.04;100.00
76547;BME280;65390;53.014;8.886;2022-12-20T08:13:39;101141.69;;;8.95;100.00
76547;BME280;65390;53.014;8.886;2022-12-20T08:16:06;101127.72;;;8.90;100.00
76547;BME280;65390;53.014;8.886;2022-12-20T08:18:33;101133.75;;;8.93;100.00
76547;BME280;65390;53.014;8.886;2022-12-20T08:21:00;101151.16;;;9.18;100.00
76547;BME280;65390;53.014;8.886;2022-12-20T08:23:26;101133.00;;;9.07;100.00
76547;BME280;65390;53.014;8.886;2022-12-20T08:25:53;101103.22;;;8.97;100.00
76547;BME280;65390;53.014;8.886;2022-12-20T08:28:20;101121.66;;;9.19;100.00
76547;BME280;65390;53.014;8.886;2022-12-20T08:30:47;101127.59;;;9.24;100.00
76547;BME280;65390;53.014;8.886;2022-12-20T08:33:13;101125.41;;;9.15;100.00
76547;BME280;65390;53.014;8.886;2022-12-20T08:35:40;101140.03;;;9.25;100.00
76547;BME280;65390;53.014;8.886;2022-12-20T08:38:07;101118.97;;;9.19;100.00
76547;BME280;65390;53.014;8.886;2022-12-20T08:40:33;101112.50;;;9.23;100.00
76547;BME280;65390;53.014;8.886;2022-12-20T08:43:00;101132.88;;;9.42;100.00
76547;BME280;65390;53.014;8.886;2022-12-20T08:45:27;101098.78;;;9.29;100.00
76547;BME280;65390;53.014;8.886;2022-12-20T08:47:52;101099.25;;;9.37;100.00
76547;BME280;65390;53.014;8.886;2022-12-20T08:50:18;101105.63;;;9.35;100.00
76547;BME280;65390;53.014;8.886;2022-12-20T08:52:43;101113.28;;;9.41;100.00
76547;BME280;65390;53.014;8.886;2022-12-20T08:55:09;101099.25;;;9.37;100.00
76547;BME280;65390;53.014;8.886;2022-12-20T08:57:34;101120.97;;;9.47;100.00
76547;BME280;65390;53.014;8.886;2022-12-20T08:59:59;101104.50;;;9.39;100.00
76547;BME280;65390;53.014;8.886;2022-12-20T09:02:25;101122.38;;;9.54;100.00
76547;BME280;65390;53.014;8.886;2022-12-20T09:04:50;101106.91;;;9.44;100.00
76547;BME280;65390;53.014;8.886;2022-12-20T09:07:16;101110.94;;;9.51;100.00
76547;BME280;65390;53.014;8.886;2022-12-20T09:09:41;101135.13;;;9.65;100.00
76547;BME280;65390;53.014;8.886;2022-12-20T09:12:06;101135.13;;;9.65;100.00
76547;BME280;65390;53.014;8.886;2022-12-20T09:14:32;101122.78;;;9.62;100.00
76547;BME280;65390;53.014;8.886;2022-12-20T09:16:57;101097.34;;;9.55;100.00
76547;BME280;65390;53.014;8.886;2022-12-20T09:19:23;101100.41;;;9.63;100.00
76547;BME280;65390;53.014;8.886;2022-12-20T09:21:48;101079.47;;;9.56;100.00
76547;BME280;65390;53.014;8.886;2022-12-20T09:24:13;101065.03;;;9.58;100.00
76547;BME280;65390;53.014;8.886;2022-12-20T09:26:39;101081.25;;;9.71;100.00
76547;BME280;65390;53.014;8.886;2022-12-20T09:29:05;101069.75;;;9.69;100.00
76547;BME280;65390;53.014;8.886;2022-12-20T09:31:30;101065.13;;;9.73;100.00
76547;BME280;65390;53.014;8.886;2022-12-20T09:33:57;101084.75;;;9.87;100.00
76547;BME280;65390;53.014;8.886;2022-12-20T09:36:26;101081.56;;;9.81;100.00
76547;BME280;65390;53.014;8.886;2022-12-20T09:38:53;101070.19;;;9.77;100.00
76547;BME280;65390;53.014;8.886;2022-12-20T09:41:32;101067.75;;;9.88;100.00
76547;BME280;65390;53.014;8.886;2022-12-20T09:44:00;101063.50;;;9.70;100.00
76547;BME280;65390;53.014;8.886;2022-12-20T09:46:28;101103.16;;;9.93;100.00
76547;BME280;65390;53.014;8.886;2022-12-20T09:48:53;101090.19;;;9.86;100.00
76547;BME280;65390;53.014;8.886;2022-12-20T09:54:37;101069.69;;;9.71;100.00
76547;BME280;65390;53.014;8.886;2022-12-20T09:59:42;101076.00;;;9.69;100.00
76547;BME280;65390;53.014;8.886;2022-12-20T10:02:10;101079.28;;;9.75;100.00
76547;BME280;65390;53.014;8.886;2022-12-20T10:04:36;101058.63;;;9.77;100.00
76547;BME280;65390;53.014;8.886;2022-12-20T10:07:35;101054.00;;;9.94;100.00
76547;BME280;65390;53.014;8.886;2022-12-20T10:10:09;101090.88;;;10.19;100.00
76547;BME280;65390;53.014;8.886;2022-12-20T10:13:00;101048.09;;;10.04;100.00
76547;BME280;65390;53.014;8.886;2022-12-20T10:15:40;101062.91;;;9.95;100.00
76547;BME280;65390;53.014;8.886;2022-12-20T10:21:14;101045.22;;;9.92;100.00
76547;BME280;65390;53.014;8.886;2022-12-20T10:26:23;101044.66;;;10.02;100.00
76547;BME280;65390;53.014;8.886;2022-12-20T10:28:48;101020.25;;;9.92;100.00
76547;BME280;65390;53.014;8.886;2022-12-20T10:31:16;101058.94;;;10.16;100.00
76547;BME280;65390;53.014;8.886;2022-12-20T10:33:42;101029.34;;;10.04;100.00
76547;BME280;65390;53.014;8.886;2022-12-20T10:36:26;101003.13;;;9.94;100.00
76547;BME280;65390;53.014;8.886;2022-12-20T10:38:54;100993.66;;;9.89;100.00
76547;BME280;65390;53.014;8.886;2022-12-20T10:41:23;101036.47;;;10.19;100.00
76547;BME280;65390;53.014;8.886;2022-12-20T10:46:22;101012.25;;;10.06;100.00
76547;BME280;65390;53.014;8.886;2022-12-20T10:49:26;101029.81;;;10.26;100.00
76547;BME280;65390;53.014;8.886;2022-12-20T10:51:57;101013.16;;;10.21;100.00
76547;BME280;65390;53.014;8.886;2022-12-20T10:54:44;101015.72;;;10.22;100.00
76547;BME280;65390;53.014;8.886;2022-12-20T10:57:28;101013.00;;;10.24;100.00
76547;BME280;65390;53.014;8.886;2022-12-20T11:00:00;101004.75;;;10.27;100.00
76547;BME280;65390;53.014;8.886;2022-12-20T11:08:06;101002.94;;;10.27;100.00
76547;BME280;65390;53.014;8.886;2022-12-20T11:10:33;101020.75;;;10.43;100.00
76547;BME280;65390;53.014;8.886;2022-12-20T11:13:01;101010.88;;;10.29;100.00
76547;BME280;65390;53.014;8.886;2022-12-20T11:18:16;101018.50;;;10.21;100.00
76547;BME280;65390;53.014;8.886;2022-12-20T11:23:25;101013.22;;;10.19;100.00
76547;BME280;65390;53.014;8.886;2022-12-20T11:29:19;100983.94;;;10.16;100.00
76547;BME280;65390;53.014;8.886;2022-12-20T11:31:54;101000.22;;;10.13;100.00
76547;BME280;65390;53.014;8.886;2022-12-20T11:37:33;101016.41;;;10.40;100.00
76547;BME280;65390;53.014;8.886;2022-12-20T11:40:25;101004.09;;;10.38;100.00
76547;BME280;65390;53.014;8.886;2022-12-20T11:46:15;101008.97;;;10.31;100.00
76547;BME280;65390;53.014;8.886;2022-12-20T11:51:44;101015.72;;;10.22;100.00
76547;BME280;65390;53.014;8.886;2022-12-20T11:56:41;101000.69;;;10.20;100.00
76547;BME280;65390;53.014;8.886;2022-12-20T12:02:09;100986.13;;;9.95;100.00
76547;BME280;65390;53.014;8.886;2022-12-20T12:04:41;100979.91;;;9.95;100.00
76547;BME280;65390;53.014;8.886;2022-12-20T12:07:21;100963.53;;;9.85;100.00
76547;BME280;65390;53.014;8.886;2022-12-20T12:10:00;100986.69;;;10.00;100.00
76547;BME280;65390;53.014;8.886;2022-12-20T12:13:10;100926.91;;;9.72;100.00
76547;BME280;65390;53.014;8.886;2022-12-20T12:18:17;100928.25;;;9.79;100.00
76547;BME280;65390;53.014;8.886;2022-12-20T12:23:26;100949.03;;;10.04;100.00
76547;BME280;65390;53.014;8.886;2022-12-20T12:25:57;100963.19;;;10.20;100.00
76547;BME280;65390;53.014;8.886;2022-12-20T12:28:23;100963.47;;;10.15;100.00
76547;BME280;65390;53.014;8.886;2022-12-20T12:31:12;100932.47;;;9.97;100.00
76547;BME280;65390;53.014;8.886;2022-12-20T12:33:45;100959.38;;;10.10;100.00
76547;BME280;65390;53.014;8.886;2022-12-20T12:36:18;100960.13;;;10.12;100.00
76547;BME280;65390;53.014;8.886;2022-12-20T12:42:30;100961.25;;;10.23;100.00
76547;BME280;65390;53.014;8.886;2022-12-20T12:45:08;100936.44;;;10.06;100.00
76547;BME280;65390;53.014;8.886;2022-12-20T12:50:23;100929.91;;;9.95;100.00
76547;BME280;65390;53.014;8.886;2022-12-20T12:52:55;100961.66;;;10.16;100.00
76547;BME280;65390;53.014;8.886;2022-12-20T12:55:40;100955.94;;;10.22;100.00
76547;BME280;65390;53.014;8.886;2022-12-20T13:09:18;100921.84;;;9.81;100.00
76547;BME280;65390;53.014;8.886;2022-12-20T13:11:45;100957.16;;;10.02;100.00
76547;BME280;65390;53.014;8.886;2022-12-20T13:16:45;100905.75;;;9.67;100.00
76547;BME280;65390;53.014;8.886;2022-12-20T13:22:41;100935.31;;;9.80;100.00
76547;BME280;65390;53.014;8.886;2022-12-20T13:24:56;100951.28;;;9.81;100.00
76547;BME280;65390;53.014;8.886;2022-12-20T13:27:40;100918.75;;;9.59;100.00
76547;BME280;65390;53.014;8.886;2022-12-20T13:37:59;100909.81;;;9.44;100.00
76547;BME280;65390;53.014;8.886;2022-12-20T13:45:52;100935.56;;;9.61;100.00
76547;BME280;65390;53.014;8.886;2022-12-20T13:48:29;100918.19;;;9.54;100.00
76547;BME280;65390;53.014;8.886;2022-12-20T13:50:57;100953.00;;;9.82;100.00
76547;BME280;65390;53.014;8.886;2022-12-20T13:53:26;100923.38;;;9.71;100.00
76547;BME280;65390;53.014;8.886;2022-12-20T13:55:52;100921.38;;;9.75;100.00
76547;BME280;65390;53.014;8.886;2022-12-20T13:58:24;100925.00;;;9.74;100.00
76547;BME280;65390;53.014;8.886;2022-12-20T14:00:50;100917.41;;;9.66;100.00
76547;BME280;65390;53.014;8.886;2022-12-20T14:03:22;100935.75;;;9.88;100.00
76547;BME280;65390;53.014;8.886;2022-12-20T14:05:52;100915.00;;;9.91;100.00
76547;BME280;65390;53.014;8.886;2022-12-20T14:08:21;100917.75;;;9.90;100.00
76547;BME280;65390;53.014;8.886;2022-12-20T14:10:51;100950.75;;;10.05;100.00
76547;BME280;65390;53.014;8.886;2022-12-20T14:13:25;100932.84;;;9.77;100.00
76547;BME280;65390;53.014;8.886;2022-12-20T14:15:52;100947.00;;;9.93;100.00
76547;BME280;65390;53.014;8.886;2022-12-20T14:18:21;100927.59;;;9.75;100.00
76547;BME280;65390;53.014;8.886;2022-12-20T14:20:50;100946.44;;;9.88;100.00
76547;BME280;65390;53.014;8.886;2022-12-20T14:23:20;100916.47;;;9.67;100.00
76547;BME280;65390;53.014;8.886;2022-12-20T14:25:58;100930.16;;;9.77;100.00
76547;BME280;65390;53.014;8.886;2022-12-20T14:28:44;100898.50;;;9.55;100.00
76547;BME280;65390;53.014;8.886;2022-12-20T14:31:41;100947.13;;;9.91;100.00
76547;BME280;65390;53.014;8.886;2022-12-20T14:34:17;100933.69;;;9.77;100.00
76547;BME280;65390;53.014;8.886;2022-12-20T14:36:47;100947.38;;;9.87;100.00
76547;BME280;65390;53.014;8.886;2022-12-20T14:39:31;100900.25;;;9.70;100.00
76547;BME280;65390;53.014;8.886;2022-12-20T14:44:32;100919.84;;;9.71;100.00
76547;BME280;65390;53.014;8.886;2022-12-20T14:47:10;100888.31;;;9.46;100.00
76547;BME280;65390;53.014;8.886;2022-12-20T14:49:37;100903.84;;;9.69;100.00
76547;BME280;65390;53.014;8.886;2022-12-20T14:54:42;100897.44;;;9.57;100.00